createdAt,value
2022-07-26T00:00:20.022Z,88.30
2022-07-26T00:02:48.467Z,88.30
2022-07-26T00:05:16.761Z,88.30
2022-07-26T00:07:45.042Z,87.90
2022-07-26T00:10:12.989Z,88.00
2022-07-26T00:12:42.435Z,88.20
2022-07-26T00:15:11.073Z,88.40
2022-07-26T00:17:38.907Z,88.40
2022-07-26T00:20:07.260Z,88.70
2022-07-26T00:22:34.679Z,89.10
2022-07-26T00:25:06.338Z,88.80
2022-07-26T00:27:37.204Z,88.90
2022-07-26T00:30:09.171Z,89.50
2022-07-26T00:32:37.776Z,90.00
2022-07-26T00:35:05.892Z,89.80
2022-07-26T00:37:36.336Z,89.40
2022-07-26T00:40:06.278Z,89.50
2022-07-26T00:42:36.435Z,90.10
2022-07-26T00:45:04.779Z,90.00
2022-07-26T00:47:32.524Z,90.00
2022-07-26T00:50:00.176Z,90.00
2022-07-26T00:52:28.817Z,90.20
2022-07-26T00:54:56.514Z,90.30
2022-07-26T00:57:24.461Z,90.30
2022-07-26T00:59:51.886Z,90.30
2022-07-26T01:02:20.544Z,90.60
2022-07-26T01:04:48.016Z,90.40
2022-07-26T01:07:16.047Z,90.50
2022-07-26T01:09:43.604Z,90.60
2022-07-26T01:12:11.045Z,90.50
2022-07-26T01:14:38.753Z,90.50
2022-07-26T01:17:06.539Z,90.70
2022-07-26T01:19:35.025Z,90.90
2022-07-26T01:22:03.893Z,90.80
2022-07-26T01:24:31.544Z,90.80
2022-07-26T01:26:59.101Z,90.80
2022-07-26T01:29:35.935Z,90.90
2022-07-26T01:32:05.025Z,91.00
2022-07-26T01:34:32.471Z,91.00
2022-07-26T01:37:00.210Z,91.00
2022-07-26T01:39:27.668Z,90.90
2022-07-26T01:41:56.884Z,91.10
2022-07-26T01:44:24.332Z,90.90
2022-07-26T01:46:51.776Z,91.20
2022-07-26T01:49:20.326Z,91.10
2022-07-26T01:51:48.757Z,91.00
2022-07-26T01:54:16.202Z,91.10
2022-07-26T01:56:51.703Z,91.20
2022-07-26T01:59:19.149Z,91.30
2022-07-26T02:01:46.834Z,91.20
2022-07-26T02:04:34.484Z,91.20
2022-07-26T02:07:05.579Z,91.60
2022-07-26T02:09:39.990Z,91.50
2022-07-26T02:12:07.859Z,91.70
2022-07-26T02:14:35.764Z,91.40
2022-07-26T02:17:03.295Z,91.50
2022-07-26T02:19:31.569Z,91.60
2022-07-26T02:21:59.653Z,91.60
2022-07-26T02:24:29.098Z,91.90
2022-07-26T02:26:57.865Z,91.60
2022-07-26T02:29:29.032Z,91.60
2022-07-26T02:31:57.383Z,91.70
2022-07-26T02:34:24.877Z,91.80
2022-07-26T02:36:52.515Z,91.70
2022-07-26T02:39:20.209Z,91.80
2022-07-26T02:41:47.889Z,91.80
2022-07-26T02:44:15.756Z,91.70
2022-07-26T02:46:43.473Z,92.00
2022-07-26T02:49:10.877Z,91.80
2022-07-26T02:51:38.651Z,91.90
2022-07-26T02:54:06.544Z,92.10
2022-07-26T02:56:35.247Z,92.40
2022-07-26T02:59:02.781Z,92.30
2022-07-26T03:01:30.846Z,92.60
2022-07-26T03:03:58.544Z,92.50
2022-07-26T03:06:26.371Z,92.60
2022-07-26T03:08:54.611Z,92.40
2022-07-26T03:11:22.095Z,92.30
2022-07-26T03:13:49.470Z,92.60
2022-07-26T03:16:21.911Z,92.90
2022-07-26T03:18:50.383Z,92.80
2022-07-26T03:21:17.782Z,92.80
2022-07-26T03:23:45.196Z,93.10
2022-07-26T03:26:12.802Z,93.10
2022-07-26T03:28:42.672Z,93.00
2022-07-26T03:31:11.045Z,93.20
2022-07-26T03:33:38.935Z,93.10
2022-07-26T03:36:11.441Z,93.30
2022-07-26T03:38:40.427Z,93.20
2022-07-26T03:41:07.884Z,93.60
2022-07-26T03:43:40.296Z,93.90
2022-07-26T03:46:07.985Z,93.90
2022-07-26T03:48:35.607Z,94.00
2022-07-26T03:51:03.111Z,94.20
2022-07-26T03:53:30.645Z,94.40
2022-07-26T03:56:16.864Z,94.40
2022-07-26T03:58:44.333Z,94.70
2022-07-26T04:01:11.751Z,95.00
2022-07-26T04:03:44.421Z,94.90
2022-07-26T04:06:15.377Z,95.10
2022-07-26T04:08:44.686Z,95.00
2022-07-26T04:11:12.291Z,95.00
2022-07-26T04:13:40.291Z,95.00
2022-07-26T04:16:08.297Z,95.20
2022-07-26T04:18:38.032Z,95.10
2022-07-26T04:21:05.513Z,95.40
2022-07-26T04:23:32.905Z,95.70
2022-07-26T04:26:01.765Z,95.80
2022-07-26T04:28:29.345Z,95.90
2022-07-26T04:30:58.678Z,96.20
2022-07-26T04:33:26.293Z,96.20
2022-07-26T04:35:54.588Z,96.20
2022-07-26T04:38:23.299Z,96.40
2022-07-26T04:40:51.271Z,96.50
2022-07-26T04:43:19.534Z,96.50
2022-07-26T04:45:47.102Z,96.20
2022-07-26T04:48:14.932Z,96.40
2022-07-26T04:50:43.628Z,96.30
2022-07-26T04:53:13.316Z,96.40
2022-07-26T04:55:42.377Z,96.60
2022-07-26T04:58:11.660Z,96.60
2022-07-26T05:01:02.668Z,96.90
2022-07-26T05:03:27.408Z,97.00
2022-07-26T05:05:56.053Z,97.00
2022-07-26T05:08:24.164Z,97.10
2022-07-26T05:10:55.444Z,97.00
2022-07-26T05:13:30.418Z,97.10
2022-07-26T05:16:02.042Z,97.50
2022-07-26T05:18:45.973Z,97.50
2022-07-26T05:21:18.807Z,97.50
2022-07-26T05:23:46.620Z,97.50
2022-07-26T05:26:14.352Z,97.50
2022-07-26T05:28:42.153Z,97.30
2022-07-26T05:31:10.122Z,97.50
2022-07-26T05:33:46.973Z,97.60
2022-07-26T05:36:14.736Z,97.60
2022-07-26T05:38:48.586Z,97.30
2022-07-26T05:41:17.511Z,98.20
2022-07-26T05:43:47.227Z,97.80
2022-07-26T05:46:18.669Z,98.40
2022-07-26T05:48:47.713Z,98.20
2022-07-26T05:51:19.701Z,98.10
2022-07-26T05:53:47.336Z,98.10
2022-07-26T05:56:14.973Z,98.50
2022-07-26T05:58:43.713Z,98.60
2022-07-26T06:01:11.677Z,98.50
2022-07-26T06:03:39.692Z,98.60
2022-07-26T06:06:08.411Z,98.60
2022-07-26T06:08:36.280Z,98.60
2022-07-26T06:11:03.995Z,98.40
2022-07-26T06:13:31.565Z,98.30
2022-07-26T06:15:59.219Z,98.80
2022-07-26T06:18:27.211Z,99.30
2022-07-26T06:20:55.864Z,99.20
2022-07-26T06:23:30.966Z,99.60
2022-07-26T06:26:05.160Z,99.70
2022-07-26T06:28:35.505Z,99.70
2022-07-26T06:31:03.317Z,99.80
2022-07-26T06:33:30.808Z,99.50
2022-07-26T06:36:00.821Z,99.30
2022-07-26T06:38:30.708Z,99.40
2022-07-26T06:40:58.323Z,99.60
2022-07-26T06:43:29.720Z,99.30
2022-07-26T06:45:58.546Z,99.40
2022-07-26T06:48:26.990Z,99.60
2022-07-26T06:50:54.896Z,99.10
2022-07-26T06:53:23.304Z,98.90
2022-07-26T06:55:50.758Z,99.00
2022-07-26T06:58:18.169Z,99.00
2022-07-26T07:00:45.778Z,98.90
2022-07-26T07:03:13.397Z,99.00
2022-07-26T07:05:41.159Z,98.90
2022-07-26T07:08:08.701Z,98.90
2022-07-26T07:10:37.822Z,98.70
2022-07-26T07:13:07.632Z,98.80
2022-07-26T07:15:36.916Z,98.50
2022-07-26T07:18:07.088Z,98.50
2022-07-26T07:20:37.605Z,98.30
2022-07-26T07:23:05.785Z,98.30
2022-07-26T07:25:33.400Z,98.40
2022-07-26T07:28:01.007Z,97.90
2022-07-26T07:30:28.910Z,97.70
2022-07-26T07:32:56.666Z,97.50
2022-07-26T07:35:31.493Z,97.40
2022-07-26T07:38:00.058Z,97.40
2022-07-26T07:40:27.926Z,97.70
2022-07-26T07:42:58.415Z,97.40
2022-07-26T07:45:25.765Z,97.50
2022-07-26T07:47:55.525Z,97.60
2022-07-26T07:50:24.027Z,97.60
2022-07-26T07:52:55.919Z,97.30
2022-07-26T07:55:41.099Z,97.30
2022-07-26T07:58:12.608Z,97.20
2022-07-26T08:00:42.325Z,97.30
2022-07-26T08:03:10.118Z,97.10
2022-07-26T08:05:40.517Z,97.10
2022-07-26T08:08:09.971Z,97.20
2022-07-26T08:10:41.848Z,97.10
2022-07-26T08:13:17.049Z,97.60
2022-07-26T08:15:53.254Z,97.30
2022-07-26T08:18:22.885Z,97.30
2022-07-26T08:20:52.911Z,97.40
2022-07-26T08:23:21.065Z,97.40
2022-07-26T08:25:56.017Z,97.50
2022-07-26T08:28:46.213Z,97.50
2022-07-26T08:31:12.950Z,97.60
2022-07-26T08:33:46.303Z,97.60
2022-07-26T08:36:16.065Z,97.10
2022-07-26T08:38:46.342Z,97.30
2022-07-26T08:41:18.114Z,97.20
2022-07-26T08:43:53.056Z,97.00
2022-07-26T08:46:25.396Z,96.50
2022-07-26T08:48:55.203Z,96.90
2022-07-26T08:51:26.765Z,96.60
2022-07-26T08:54:04.235Z,96.30
2022-07-26T08:56:34.720Z,95.90
2022-07-26T08:59:06.651Z,95.80
2022-07-26T09:01:49.924Z,95.70
2022-07-26T09:04:30.445Z,95.60
2022-07-26T09:07:06.309Z,94.70
2022-07-26T09:09:34.989Z,94.30
2022-07-26T09:12:20.505Z,94.60
2022-07-26T09:14:48.186Z,94.10
2022-07-26T09:17:19.971Z,94.10
2022-07-26T09:20:02.315Z,93.80
2022-07-26T09:22:34.357Z,93.40
2022-07-26T09:25:02.074Z,93.30
2022-07-26T09:27:45.232Z,93.90
2022-07-26T09:30:13.329Z,93.50
2022-07-26T09:32:58.798Z,93.50
2022-07-26T09:38:19.905Z,93.80
2022-07-26T09:40:51.358Z,93.90
2022-07-26T09:43:21.839Z,94.00
2022-07-26T09:46:05.653Z,94.00
2022-07-26T09:48:59.531Z,93.80
2022-07-26T09:51:41.152Z,93.80
2022-07-26T09:54:10.711Z,93.70
2022-07-26T09:56:57.192Z,93.50
2022-07-26T09:59:25.856Z,93.20
2022-07-26T10:01:54.089Z,93.20
2022-07-26T10:04:23.413Z,93.10
2022-07-26T10:06:51.868Z,93.10
2022-07-26T10:09:20.151Z,93.00
2022-07-26T10:11:52.902Z,92.90
2022-07-26T10:14:58.344Z,92.90
2022-07-26T10:17:31.298Z,92.90
2022-07-26T10:20:19.419Z,92.80
2022-07-26T10:22:53.709Z,92.80
2022-07-26T10:25:25.413Z,92.80
2022-07-26T10:27:55.221Z,92.80
2022-07-26T10:30:23.761Z,92.20
2022-07-26T10:32:54.808Z,92.10
2022-07-26T10:35:42.047Z,92.00
2022-07-26T10:38:12.428Z,90.90
2022-07-26T10:40:56.981Z,91.60
2022-07-26T10:43:42.064Z,91.10
2022-07-26T10:46:13.706Z,90.70
2022-07-26T10:49:04.637Z,90.70
2022-07-26T10:51:35.850Z,90.80
2022-07-26T10:54:19.778Z,90.70
2022-07-26T10:56:49.025Z,90.10
2022-07-26T10:59:54.851Z,90.60
2022-07-26T11:02:23.680Z,90.00
2022-07-26T11:04:59.668Z,89.80
2022-07-26T11:07:29.583Z,89.30
2022-07-26T11:10:05.160Z,89.40
2022-07-26T11:12:32.798Z,89.10
2022-07-26T11:15:16.512Z,89.50
2022-07-26T11:17:45.923Z,88.30
2022-07-26T11:20:34.051Z,89.30
2022-07-26T11:23:04.856Z,88.10
2022-07-26T11:28:21.519Z,87.10
2022-07-26T11:31:03.693Z,87.10
2022-07-26T11:33:49.312Z,85.70
2022-07-26T11:36:20.466Z,86.50
2022-07-26T11:38:54.421Z,86.50
2022-07-26T11:41:34.621Z,86.00
2022-07-26T11:44:06.385Z,86.30
2022-07-26T11:46:37.669Z,86.70
2022-07-26T11:50:11.720Z,85.80
2022-07-26T11:52:31.758Z,86.30
2022-07-26T11:54:59.789Z,85.60
2022-07-26T11:57:33.084Z,85.40
2022-07-26T12:00:02.788Z,83.80
2022-07-26T12:02:39.398Z,85.30
2022-07-26T12:05:18.384Z,84.70
2022-07-26T12:08:00.041Z,84.90
2022-07-26T12:10:28.305Z,83.90
2022-07-26T12:13:08.411Z,83.70
2022-07-26T12:15:47.014Z,84.40
2022-07-26T12:18:29.977Z,84.80
2022-07-26T12:21:06.248Z,84.60
2022-07-26T12:23:53.148Z,84.40
2022-07-26T12:26:24.489Z,84.80
2022-07-26T12:28:57.118Z,83.70
2022-07-26T12:31:29.893Z,84.30
2022-07-26T12:34:01.828Z,83.90
2022-07-26T12:36:40.677Z,83.70
2022-07-26T12:39:22.176Z,84.90
2022-07-26T12:41:50.706Z,84.50
2022-07-26T12:44:18.771Z,84.60
2022-07-26T12:46:52.401Z,84.00
2022-07-26T12:49:21.800Z,83.90
2022-07-26T12:51:50.306Z,83.40
2022-07-26T12:54:18.795Z,82.80
2022-07-26T12:56:48.818Z,83.80
2022-07-26T12:59:19.919Z,83.40
2022-07-26T13:01:49.588Z,82.90
2022-07-26T13:04:20.121Z,84.70
2022-07-26T13:06:53.259Z,84.20
2022-07-26T13:09:22.791Z,84.20
2022-07-26T13:11:51.841Z,83.90
2022-07-26T13:14:21.545Z,83.50
2022-07-26T13:16:51.990Z,82.80
2022-07-26T13:19:20.638Z,82.90
2022-07-26T13:21:52.811Z,83.80
2022-07-26T13:24:27.713Z,82.20
2022-07-26T13:26:58.144Z,82.50
2022-07-26T13:29:29.266Z,81.90
2022-07-26T13:31:59.486Z,81.00
2022-07-26T13:34:34.729Z,81.00
2022-07-26T13:37:09.018Z,81.60
2022-07-26T13:39:37.946Z,81.40
2022-07-26T13:42:05.815Z,81.30
2022-07-26T13:44:35.479Z,81.60
2022-07-26T13:47:05.045Z,81.80
2022-07-26T13:49:33.926Z,81.50
2022-07-26T13:52:01.854Z,81.30
2022-07-26T13:54:32.837Z,81.80
2022-07-26T13:57:02.737Z,81.90
2022-07-26T13:59:31.463Z,81.90
2022-07-26T14:01:59.077Z,82.20
2022-07-26T14:04:29.043Z,81.30
2022-07-26T14:06:56.970Z,80.80
2022-07-26T14:09:36.838Z,81.70
2022-07-26T14:12:07.385Z,81.50
2022-07-26T14:14:37.781Z,80.60
2022-07-26T14:17:05.212Z,80.40
2022-07-26T14:19:32.982Z,80.30
2022-07-26T14:22:00.824Z,79.90
2022-07-26T14:24:28.764Z,79.80
2022-07-26T14:27:02.866Z,79.50
2022-07-26T14:29:34.181Z,79.30
2022-07-26T14:32:03.481Z,77.80
2022-07-26T14:34:30.988Z,78.20
2022-07-26T14:36:58.649Z,78.30
2022-07-26T14:39:28.500Z,77.60
2022-07-26T14:41:56.119Z,76.90
2022-07-26T14:44:26.316Z,77.00
2022-07-26T14:46:54.227Z,75.30
2022-07-26T14:49:26.201Z,75.40
2022-07-26T14:51:57.696Z,75.40
2022-07-26T14:54:25.401Z,74.90
2022-07-26T14:56:54.706Z,75.00
2022-07-26T14:59:22.665Z,74.20
2022-07-26T15:01:50.347Z,74.90
2022-07-26T15:04:17.909Z,73.20
2022-07-26T15:06:45.852Z,72.20
2022-07-26T15:09:13.583Z,71.50
2022-07-26T15:11:41.494Z,72.40
2022-07-26T15:14:12.429Z,72.60
2022-07-26T15:16:40.676Z,72.30
2022-07-26T15:19:08.136Z,72.50
2022-07-26T15:21:36.148Z,72.20
2022-07-26T15:24:03.941Z,71.50
2022-07-26T15:26:33.629Z,71.10
2022-07-26T15:29:03.625Z,69.30
2022-07-26T15:31:37.155Z,69.80
2022-07-26T15:34:07.981Z,70.00
2022-07-26T15:36:38.945Z,69.50
2022-07-26T15:39:17.859Z,67.90
2022-07-26T15:41:47.158Z,67.90
2022-07-26T15:44:16.618Z,68.30
2022-07-26T15:46:47.930Z,68.90
2022-07-26T15:49:20.653Z,69.00
2022-07-26T15:51:51.581Z,67.80
2022-07-26T15:54:20.753Z,68.10
2022-07-26T15:56:48.196Z,68.90
2022-07-26T15:59:16.344Z,68.80
2022-07-26T16:01:52.001Z,68.60
2022-07-26T16:04:20.180Z,66.90
2022-07-26T16:06:53.852Z,67.20
2022-07-26T16:09:22.079Z,66.90
2022-07-26T16:11:53.022Z,67.60
2022-07-26T16:14:20.732Z,66.50
2022-07-26T16:16:51.304Z,67.80
2022-07-26T16:19:19.191Z,66.00
2022-07-26T16:21:50.212Z,66.40
2022-07-26T16:24:18.711Z,66.00
2022-07-26T16:26:49.939Z,66.00
2022-07-26T16:29:19.423Z,64.90
2022-07-26T16:31:47.103Z,66.80
2022-07-26T16:34:18.376Z,67.10
2022-07-26T16:36:49.835Z,68.10
2022-07-26T16:39:19.804Z,68.20
2022-07-26T16:41:47.179Z,68.50
2022-07-26T16:44:14.970Z,69.00
2022-07-26T16:46:44.314Z,68.30
2022-07-26T16:49:16.428Z,69.20
2022-07-26T16:51:47.051Z,69.40
2022-07-26T16:54:15.579Z,69.40
2022-07-26T16:56:45.042Z,69.80
2022-07-26T16:59:14.205Z,69.90
2022-07-26T17:01:48.552Z,70.20
2022-07-26T17:04:44.619Z,70.20
2022-07-26T17:07:29.121Z,70.60
2022-07-26T17:09:58.101Z,71.90
2022-07-26T17:12:34.490Z,70.90
2022-07-26T17:15:32.147Z,71.40
2022-07-26T17:18:01.239Z,71.70
2022-07-26T17:20:31.760Z,73.00
2022-07-26T17:22:59.915Z,75.20
2022-07-26T17:25:27.881Z,76.60
2022-07-26T17:27:56.226Z,77.20
2022-07-26T17:30:30.035Z,78.40
2022-07-26T17:32:59.986Z,78.60
2022-07-26T17:35:33.931Z,79.20
2022-07-26T17:38:04.523Z,81.20
2022-07-26T17:40:41.223Z,82.20
2022-07-26T17:43:14.822Z,81.60
2022-07-26T17:45:47.062Z,82.50
2022-07-26T17:48:15.779Z,82.20
2022-07-26T17:50:50.274Z,83.20
2022-07-26T17:53:22.078Z,82.80
2022-07-26T17:56:05.456Z,82.80
2022-07-26T17:58:55.995Z,82.70
2022-07-26T18:01:33.180Z,82.00
2022-07-26T18:04:09.318Z,80.70
2022-07-26T18:06:44.328Z,81.10
2022-07-26T18:09:29.484Z,80.50
2022-07-26T18:11:57.860Z,80.90
2022-07-26T18:14:37.976Z,80.90
2022-07-26T18:17:05.534Z,80.80
2022-07-26T18:19:46.998Z,80.90
2022-07-26T18:22:16.366Z,81.30
2022-07-26T18:24:45.026Z,81.90
2022-07-26T18:27:15.851Z,82.30
2022-07-26T18:29:46.392Z,82.90
2022-07-26T18:32:15.580Z,83.40
2022-07-26T18:34:51.600Z,83.60
2022-07-26T18:37:21.439Z,84.00
2022-07-26T18:39:52.737Z,84.20
2022-07-26T18:42:30.989Z,84.70
2022-07-26T18:45:01.834Z,84.60
2022-07-26T18:47:31.642Z,85.00
2022-07-26T18:50:01.991Z,85.50
2022-07-26T18:52:31.857Z,87.40
2022-07-26T18:55:03.432Z,86.90
2022-07-26T18:57:32.296Z,86.40
2022-07-26T19:00:01.582Z,87.00
2022-07-26T19:02:31.410Z,87.60
2022-07-26T19:05:05.421Z,88.30
2022-07-26T19:07:38.175Z,88.60
2022-07-26T19:10:08.450Z,88.90
2022-07-26T19:12:36.284Z,88.80
2022-07-26T19:15:04.804Z,89.20
2022-07-26T19:17:35.837Z,89.10
2022-07-26T19:20:05.298Z,89.50
2022-07-26T19:22:36.028Z,90.10
2022-07-26T19:25:10.140Z,89.80
2022-07-26T19:27:40.517Z,90.30
2022-07-26T19:30:12.088Z,90.10
2022-07-26T19:32:44.492Z,90.20
2022-07-26T19:35:16.094Z,90.60
2022-07-26T19:37:46.309Z,90.60
2022-07-26T19:40:15.220Z,90.70
2022-07-26T19:42:51.523Z,90.70
2022-07-26T19:45:19.390Z,90.80
2022-07-26T19:47:50.966Z,90.70
2022-07-26T19:50:20.046Z,90.80
2022-07-26T19:52:48.640Z,91.50
2022-07-26T19:55:20.291Z,91.80
2022-07-26T19:57:48.253Z,92.30
2022-07-26T20:00:17.777Z,92.30
2022-07-26T20:02:51.577Z,92.60
2022-07-26T20:05:23.575Z,93.00
2022-07-26T20:07:52.040Z,92.70
2022-07-26T20:10:45.083Z,93.60
2022-07-26T20:13:15.265Z,93.10
2022-07-26T20:15:48.527Z,93.30
2022-07-26T20:18:37.480Z,94.40
2022-07-26T20:21:05.567Z,94.70
2022-07-26T20:23:37.418Z,94.60
2022-07-26T20:26:09.611Z,95.30
2022-07-26T20:28:40.666Z,95.10
2022-07-26T20:31:09.342Z,95.20
2022-07-26T20:33:37.346Z,95.70
2022-07-26T20:36:05.172Z,95.60
2022-07-26T20:38:33.081Z,96.10
2022-07-26T20:41:01.421Z,95.80
2022-07-26T20:43:31.610Z,96.20
2022-07-26T20:46:02.180Z,96.50
2022-07-26T20:48:31.428Z,96.40
2022-07-26T20:51:00.337Z,95.80
2022-07-26T20:53:35.741Z,96.60
2022-07-26T20:56:05.748Z,96.80
2022-07-26T20:58:33.636Z,96.70
2022-07-26T21:01:06.282Z,96.40
2022-07-26T21:03:37.236Z,96.70
2022-07-26T21:06:18.325Z,96.20
2022-07-26T21:08:47.363Z,96.20
2022-07-26T21:11:22.391Z,96.70
2022-07-26T21:13:55.546Z,96.80
2022-07-26T21:16:25.338Z,96.80
2022-07-26T21:19:02.291Z,97.10
2022-07-26T21:21:38.535Z,97.00
2022-07-26T21:24:09.161Z,96.90
2022-07-26T21:26:36.863Z,96.70
2022-07-26T21:29:04.869Z,97.00
2022-07-26T21:31:38.653Z,97.30
2022-07-26T21:34:10.206Z,97.40
2022-07-26T21:36:51.870Z,97.30
2022-07-26T21:39:21.984Z,97.40
2022-07-26T21:41:51.274Z,97.50
2022-07-26T21:44:19.875Z,97.10
2022-07-26T21:46:50.558Z,97.40
2022-07-26T21:49:30.124Z,97.80
2022-07-26T21:51:58.738Z,97.70
2022-07-26T21:54:26.931Z,97.70
2022-07-26T21:56:54.500Z,97.70
2022-07-26T21:59:22.018Z,98.20
2022-07-26T22:01:50.720Z,98.40
2022-07-26T22:04:18.644Z,98.00
2022-07-26T22:06:49.137Z,98.30
2022-07-26T22:09:19.678Z,98.10
2022-07-26T22:11:52.153Z,98.50
2022-07-26T22:14:22.396Z,98.30
2022-07-26T22:16:53.508Z,98.10
2022-07-26T22:19:22.651Z,98.00
2022-07-26T22:21:55.579Z,97.80
2022-07-26T22:24:25.434Z,97.80
2022-07-26T22:26:54.759Z,97.70
2022-07-26T22:29:23.689Z,98.00
2022-07-26T22:31:51.824Z,98.00
2022-07-26T22:34:19.260Z,97.70
2022-07-26T22:36:47.951Z,98.20
